createdAt,value
2023-01-02T00:02:11.247Z,17.48
2023-01-02T00:05:02.992Z,17.17
2023-01-02T00:07:52.252Z,15.57
2023-01-02T00:10:41.231Z,17.83
2023-01-02T00:13:30.721Z,16.38
2023-01-02T00:16:19.852Z,16.90
2023-01-02T00:19:10.375Z,17.15
2023-01-02T00:22:01.306Z,17.35
2023-01-02T00:24:50.449Z,17.30
2023-01-02T00:27:39.420Z,16.83
2023-01-02T00:30:33.786Z,16.85
2023-01-02T00:33:25.429Z,17.60
2023-01-02T00:36:15.648Z,17.03
2023-01-02T00:39:06.272Z,16.05
2023-01-02T00:41:55.324Z,17.05
2023-01-02T00:44:44.540Z,16.80
2023-01-02T00:47:34.155Z,18.45
2023-01-02T00:50:23.693Z,17.20
2023-01-02T00:53:14.365Z,19.05
2023-01-02T00:56:04.684Z,17.73
2023-01-02T00:58:53.825Z,17.30
2023-01-02T01:01:43.087Z,17.60
2023-01-02T01:04:34.360Z,19.52
2023-01-02T01:07:24.430Z,19.05
2023-01-02T01:10:13.651Z,18.73
2023-01-02T01:13:04.052Z,17.52
2023-01-02T01:15:54.324Z,17.83
2023-01-02T01:18:43.505Z,17.40
2023-01-02T01:21:32.757Z,18.05
2023-01-02T01:24:21.878Z,17.92
2023-01-02T01:27:11.069Z,18.23
2023-01-02T01:30:01.884Z,19.10
2023-01-02T01:32:51.261Z,17.95
2023-01-02T01:35:40.544Z,18.38
2023-01-02T01:38:29.539Z,18.70
2023-01-02T01:41:23.359Z,20.13
2023-01-02T01:44:42.574Z,18.48
2023-01-02T01:47:40.588Z,19.38
2023-01-02T01:50:33.763Z,17.70
2023-01-02T01:53:25.481Z,19.33
2023-01-02T01:56:15.983Z,17.85
2023-01-02T01:59:08.002Z,18.38
2023-01-02T02:01:58.392Z,18.10
2023-01-02T02:04:49.622Z,16.70
2023-01-02T02:07:42.423Z,13.15
2023-01-02T02:10:31.492Z,12.40
2023-01-02T02:13:20.598Z,12.95
2023-01-02T02:16:29.276Z,11.60
2023-01-02T02:19:50.563Z,12.07
2023-01-02T02:23:21.932Z,12.40
2023-01-02T02:26:39.883Z,11.52
2023-01-02T02:29:58.645Z,12.68
2023-01-02T02:33:16.542Z,11.80
2023-01-02T02:36:12.893Z,12.98
2023-01-02T02:39:12.777Z,11.87
2023-01-02T02:42:11.581Z,13.10
2023-01-02T02:45:10.420Z,14.27
2023-01-02T02:48:06.703Z,13.65
2023-01-02T02:51:02.160Z,14.27
2023-01-02T02:53:57.262Z,14.68
2023-01-02T02:56:48.392Z,14.15
2023-01-02T02:59:40.046Z,14.63
2023-01-02T03:02:31.178Z,13.53
2023-01-02T03:05:26.906Z,14.60
2023-01-02T03:08:28.105Z,13.57
2023-01-02T03:11:22.367Z,14.77
2023-01-02T03:14:17.492Z,13.43
2023-01-02T03:17:18.696Z,14.73
2023-01-02T03:20:12.684Z,14.47
2023-01-02T03:23:05.832Z,13.73
2023-01-02T03:25:55.708Z,14.53
2023-01-02T03:28:47.762Z,15.35
2023-01-02T03:31:42.845Z,14.90
2023-01-02T03:34:37.983Z,14.67
2023-01-02T03:37:32.617Z,14.30
2023-01-02T03:40:25.647Z,14.40
2023-01-02T03:43:19.024Z,14.83
2023-01-02T03:46:27.580Z,15.40
2023-01-02T03:49:23.504Z,14.97
2023-01-02T03:52:12.871Z,15.77
2023-01-02T03:55:05.418Z,14.77
2023-01-02T03:58:03.193Z,14.40
2023-01-02T04:01:04.003Z,16.67
2023-01-02T04:03:58.968Z,16.13
2023-01-02T04:06:53.292Z,16.90
2023-01-02T04:09:44.561Z,17.47
2023-01-02T04:12:37.739Z,16.83
2023-01-02T04:15:32.696Z,18.13
2023-01-02T04:18:24.895Z,16.73
2023-01-02T04:21:17.151Z,18.07
2023-01-02T04:24:12.216Z,17.43
2023-01-02T04:27:05.400Z,18.07
2023-01-02T04:29:56.930Z,19.50
2023-01-02T04:32:48.047Z,19.70
2023-01-02T04:35:37.619Z,19.60
2023-01-02T04:38:26.960Z,18.00
2023-01-02T04:41:19.180Z,19.20
2023-01-02T04:44:08.578Z,17.27
2023-01-02T04:46:59.220Z,16.17
2023-01-02T04:49:48.705Z,16.50
2023-01-02T04:52:38.331Z,16.13
2023-01-02T04:55:27.748Z,15.82
2023-01-02T04:58:16.784Z,17.00
2023-01-02T05:01:10.631Z,16.77
2023-01-02T05:04:01.067Z,15.87
2023-01-02T05:06:50.401Z,14.23
2023-01-02T05:09:39.292Z,15.60
2023-01-02T05:12:28.370Z,14.93
2023-01-02T05:15:17.428Z,15.20
2023-01-02T05:18:06.933Z,14.47
2023-01-02T05:21:02.499Z,14.30
2023-01-02T05:23:51.087Z,16.45
2023-01-02T05:26:39.799Z,15.03
2023-01-02T05:29:28.657Z,13.80
2023-01-02T05:32:17.764Z,13.43
2023-01-02T05:35:08.317Z,11.50
2023-01-02T05:37:58.965Z,12.00
2023-01-02T05:40:49.398Z,11.67
2023-01-02T05:43:39.672Z,11.80
2023-01-02T05:46:28.701Z,12.10
2023-01-02T05:49:18.257Z,12.07
2023-01-02T05:52:08.280Z,11.60
2023-01-02T05:54:58.995Z,12.47
2023-01-02T05:57:48.380Z,11.73
2023-01-02T06:00:37.524Z,10.87
2023-01-02T06:03:26.944Z,11.67
2023-01-02T06:06:18.037Z,13.27
2023-01-02T06:09:08.402Z,14.07
2023-01-02T06:11:59.012Z,12.53
2023-01-02T06:14:47.919Z,13.50
2023-01-02T06:17:37.473Z,12.53
2023-01-02T06:20:26.857Z,12.47
2023-01-02T06:23:16.132Z,13.57
2023-01-02T06:26:06.458Z,12.53
2023-01-02T06:28:58.596Z,12.77
2023-01-02T06:31:51.318Z,12.90
2023-01-02T06:34:41.087Z,13.13
2023-01-02T06:37:30.379Z,12.40
2023-01-02T06:40:19.345Z,13.30
2023-01-02T06:43:08.842Z,12.77
2023-01-02T06:46:01.925Z,12.70
2023-01-02T06:48:51.321Z,11.27
2023-01-02T06:51:40.867Z,12.77
2023-01-02T06:54:29.794Z,10.57
2023-01-02T06:57:18.954Z,12.07
2023-01-02T07:00:09.099Z,11.77
2023-01-02T07:02:59.551Z,10.97
2023-01-02T07:05:48.953Z,10.60
2023-01-02T07:08:39.249Z,11.83
2023-01-02T07:11:28.360Z,10.97
2023-01-02T07:14:17.514Z,11.40
2023-01-02T07:17:06.087Z,11.50
2023-01-02T07:20:01.663Z,13.00
2023-01-02T07:22:52.330Z,11.60
2023-01-02T07:25:44.515Z,12.40
2023-01-02T07:28:34.977Z,14.73
2023-01-02T07:31:24.171Z,24.07
2023-01-02T07:34:13.787Z,22.87
2023-01-02T07:37:04.419Z,18.17
2023-01-02T07:39:53.756Z,17.90
2023-01-02T07:42:42.884Z,16.13
2023-01-02T07:45:31.597Z,16.30
2023-01-02T07:48:20.517Z,17.07
2023-01-02T07:51:09.764Z,13.60
2023-01-02T07:54:00.801Z,14.37
2023-01-02T07:56:51.215Z,15.43
2023-01-02T07:59:40.835Z,14.40
2023-01-02T08:02:29.818Z,15.17
2023-01-02T08:05:19.221Z,13.60
2023-01-02T08:08:08.814Z,14.17
2023-01-02T08:10:59.199Z,12.33
2023-01-02T08:13:50.152Z,12.40
2023-01-02T08:16:39.350Z,13.23
2023-01-02T08:19:28.451Z,16.20
2023-01-02T08:22:17.611Z,14.10
2023-01-02T08:25:08.072Z,14.10
2023-01-02T08:27:59.363Z,12.30
2023-01-02T08:30:48.559Z,11.77
2023-01-02T08:33:40.319Z,11.63
2023-01-02T08:36:29.221Z,11.80
2023-01-02T08:39:18.237Z,10.60
2023-01-02T08:42:07.310Z,10.23
2023-01-02T08:44:58.127Z,11.23
2023-01-02T08:47:47.520Z,11.13
2023-01-02T08:50:36.517Z,11.70
2023-01-02T08:53:25.475Z,11.90
2023-01-02T08:56:25.694Z,11.23
2023-01-02T08:59:15.024Z,12.07
2023-01-02T09:02:05.925Z,12.30
2023-01-02T09:04:55.677Z,11.20
2023-01-02T09:07:44.743Z,12.03
2023-01-02T09:10:34.174Z,12.87
2023-01-02T09:13:23.191Z,11.27
2023-01-02T09:16:12.903Z,12.60
2023-01-02T09:19:04.289Z,12.60
2023-01-02T09:21:53.558Z,11.63
2023-01-02T09:24:43.546Z,12.30
2023-01-02T09:27:32.398Z,11.73
2023-01-02T09:30:21.680Z,11.83
2023-01-02T09:33:10.561Z,11.30
2023-01-02T09:36:04.709Z,10.97
2023-01-02T09:38:54.095Z,11.33
2023-01-02T09:41:45.440Z,10.57
2023-01-02T09:44:39.977Z,9.67
2023-01-02T09:47:30.250Z,9.97
2023-01-02T09:50:24.201Z,11.20
2023-01-02T09:53:16.264Z,11.97
2023-01-02T09:56:11.899Z,10.90
2023-01-02T09:59:06.764Z,11.33
2023-01-02T10:02:04.901Z,10.87
2023-01-02T10:05:10.148Z,10.60
2023-01-02T10:08:02.374Z,10.17
2023-01-02T10:10:57.437Z,11.40
2023-01-02T10:14:17.977Z,10.53
2023-01-02T10:17:03.313Z,10.70
2023-01-02T10:19:56.930Z,11.87
2023-01-02T10:22:51.648Z,11.57
2023-01-02T10:25:48.114Z,9.83
2023-01-02T10:28:51.950Z,11.87
2023-01-02T10:31:46.869Z,11.27
2023-01-02T10:34:42.710Z,9.87
2023-01-02T10:37:32.619Z,13.27
2023-01-02T10:40:22.303Z,11.17
2023-01-02T10:43:11.816Z,11.00
2023-01-02T10:46:03.590Z,10.00
2023-01-02T10:48:52.921Z,11.17
2023-01-02T10:51:47.124Z,18.33
2023-01-02T10:54:56.685Z,13.47
2023-01-02T10:57:51.289Z,13.02
2023-01-02T11:00:41.031Z,12.88
2023-01-02T11:03:32.301Z,10.55
2023-01-02T11:06:35.218Z,10.15
2023-01-02T11:09:28.279Z,11.50
2023-01-02T11:12:20.225Z,10.73
2023-01-02T11:15:13.006Z,11.60
2023-01-02T11:18:03.229Z,11.65
2023-01-02T11:20:57.082Z,11.68
2023-01-02T11:23:47.598Z,14.23
2023-01-02T11:26:41.111Z,11.90
2023-01-02T11:29:33.095Z,12.50
2023-01-02T11:32:27.665Z,16.83
2023-01-02T11:35:35.741Z,13.75
2023-01-02T11:38:30.802Z,11.82
2023-01-02T11:41:56.978Z,11.25
2023-01-02T11:44:53.883Z,12.95
2023-01-02T11:47:46.696Z,11.60
2023-01-02T11:50:38.953Z,13.65
2023-01-02T11:53:34.703Z,15.80
2023-01-02T11:56:30.403Z,14.73
2023-01-02T11:59:22.727Z,13.23
2023-01-02T12:02:19.280Z,13.20
2023-01-02T12:05:14.187Z,13.40
2023-01-02T12:08:12.609Z,13.55
2023-01-02T12:11:15.000Z,13.23
2023-01-02T12:14:12.225Z,14.65
2023-01-02T12:17:08.816Z,14.05
2023-01-02T12:20:27.307Z,15.35
2023-01-02T12:23:33.575Z,14.45
2023-01-02T12:26:29.969Z,13.52
2023-01-02T12:29:46.783Z,12.27
2023-01-02T12:33:15.148Z,13.23
2023-01-02T12:36:26.035Z,13.68
2023-01-02T12:39:56.326Z,13.85
2023-01-02T12:43:02.221Z,13.38
2023-01-02T12:45:57.716Z,11.55
2023-01-02T12:49:06.261Z,12.65
2023-01-02T12:52:05.158Z,11.77
2023-01-02T12:55:14.409Z,12.68
2023-01-02T12:58:08.637Z,12.48
2023-01-02T13:01:08.814Z,12.68
2023-01-02T13:04:11.366Z,13.23
2023-01-02T13:07:04.596Z,9.70
2023-01-02T13:09:55.372Z,12.77
2023-01-02T13:12:48.209Z,12.98
2023-01-02T13:15:42.159Z,13.93
2023-01-02T13:18:39.033Z,12.60
2023-01-02T13:21:55.720Z,14.32
2023-01-02T13:24:45.089Z,19.05
2023-01-02T13:27:35.012Z,16.42
2023-01-02T13:30:45.143Z,22.73
2023-01-02T13:33:38.408Z,45.63
2023-01-02T13:36:29.617Z,26.02
2023-01-02T13:39:22.650Z,14.43
2023-01-02T13:42:38.989Z,13.10
2023-01-02T13:45:31.173Z,13.18
2023-01-02T13:48:28.504Z,18.08
2023-01-02T13:51:22.230Z,24.80
2023-01-02T13:54:16.975Z,16.80
2023-01-02T13:57:31.879Z,15.60
2023-01-02T14:00:36.453Z,13.60
2023-01-02T14:03:43.187Z,14.20
2023-01-02T14:06:33.843Z,16.42
2023-01-02T14:09:24.617Z,15.20
2023-01-02T14:12:14.336Z,14.80
2023-01-02T14:15:03.563Z,13.35
2023-01-02T14:18:04.110Z,13.15
2023-01-02T14:20:57.214Z,13.70
2023-01-02T14:24:16.816Z,13.45
2023-01-02T14:27:04.444Z,13.77
2023-01-02T14:29:57.148Z,15.93
2023-01-02T14:32:48.252Z,13.82
2023-01-02T14:35:39.737Z,16.65
2023-01-02T14:38:34.378Z,15.02
2023-01-02T14:42:15.818Z,13.93
2023-01-02T14:45:08.406Z,13.90
2023-01-02T14:48:03.689Z,14.27
2023-01-02T14:50:54.519Z,15.68
2023-01-02T14:53:51.867Z,14.95
2023-01-02T14:56:43.287Z,15.00
2023-01-02T14:59:38.636Z,14.80
2023-01-02T15:02:32.455Z,12.90
2023-01-02T15:05:28.794Z,13.43
2023-01-02T15:08:21.685Z,18.20
2023-01-02T15:11:37.835Z,17.25
2023-01-02T15:14:26.955Z,16.70
2023-01-02T15:17:19.711Z,16.25
2023-01-02T15:20:10.232Z,14.77
2023-01-02T15:23:00.159Z,14.68
2023-01-02T15:25:49.643Z,13.40
2023-01-02T15:28:40.199Z,13.52
2023-01-02T15:31:30.136Z,13.98
2023-01-02T15:34:26.985Z,12.90
2023-01-02T15:37:16.119Z,14.60
2023-01-02T15:40:06.400Z,31.27
2023-01-02T15:43:14.630Z,22.85
2023-01-02T19:13:44.179Z,17.67
2023-01-02T19:16:33.263Z,16.93
2023-01-02T19:19:26.609Z,15.37
2023-01-02T19:22:17.878Z,16.00
2023-01-02T19:25:18.224Z,16.77
2023-01-02T19:28:20.200Z,17.00
2023-01-02T19:31:15.519Z,16.37
2023-01-02T19:34:05.059Z,17.67
2023-01-02T19:36:59.623Z,16.33
2023-01-02T19:39:51.613Z,17.33
2023-01-02T19:42:40.443Z,18.40
2023-01-02T19:45:31.691Z,16.48
2023-01-02T19:48:22.444Z,17.52
2023-01-02T19:51:11.672Z,17.15
2023-01-02T19:54:04.188Z,19.23
2023-01-02T19:56:53.872Z,18.88
2023-01-02T19:59:45.581Z,17.95
2023-01-02T20:02:35.438Z,19.60
2023-01-02T20:05:27.310Z,19.00
2023-01-02T20:08:16.493Z,17.27
2023-01-02T20:11:25.695Z,17.73
2023-01-02T20:14:14.603Z,18.30
2023-01-02T20:17:03.819Z,17.48
2023-01-02T20:19:52.663Z,19.60
2023-01-02T20:22:45.043Z,19.70
2023-01-02T20:25:34.693Z,19.60
2023-01-02T20:28:24.219Z,18.83
2023-01-02T20:31:13.351Z,19.03
2023-01-02T20:34:03.212Z,18.83
2023-01-02T20:36:52.215Z,19.20
2023-01-02T20:39:42.847Z,19.08
2023-01-02T20:42:33.145Z,18.70
2023-01-02T20:45:22.350Z,19.13
2023-01-02T20:48:11.504Z,19.75
2023-01-02T20:51:00.885Z,18.25
2023-01-02T20:53:49.606Z,19.77
2023-01-02T20:56:39.894Z,17.83
2023-01-02T20:59:29.427Z,18.27
2023-01-02T21:02:19.133Z,18.25
2023-01-02T21:05:10.163Z,20.80
2023-01-02T21:07:59.307Z,19.45
2023-01-02T21:10:48.743Z,18.30
2023-01-02T21:13:39.456Z,19.08
2023-01-02T21:16:28.536Z,17.90
2023-01-02T21:19:17.699Z,18.60
2023-01-02T21:22:06.423Z,18.13
2023-01-02T21:24:55.875Z,19.88
2023-01-02T21:27:45.670Z,17.90
2023-01-02T21:30:36.642Z,18.30
2023-01-02T21:33:27.171Z,18.83
2023-01-02T21:36:17.228Z,18.20
2023-01-02T21:39:06.456Z,18.03
2023-01-02T21:42:12.504Z,19.23
2023-01-02T21:45:02.708Z,17.20
2023-01-02T21:47:55.692Z,18.00
2023-01-02T21:50:45.227Z,18.08
2023-01-02T21:53:34.152Z,18.27
2023-01-02T21:56:23.213Z,17.42
2023-01-02T21:59:12.291Z,19.92
2023-01-02T22:02:04.178Z,18.13
2023-01-02T22:04:54.827Z,17.00
2023-01-02T22:07:44.203Z,17.90
2023-01-02T22:10:33.385Z,17.38
2023-01-02T22:13:22.815Z,18.88
2023-01-02T22:16:12.103Z,17.35
2023-01-02T22:19:01.167Z,18.98
2023-01-02T22:21:51.874Z,18.55
2023-01-02T22:24:44.476Z,17.80
2023-01-02T22:27:34.365Z,17.90
2023-01-02T22:30:33.132Z,17.60
2023-01-02T22:33:23.663Z,18.83
2023-01-02T22:36:12.660Z,18.35
2023-01-02T22:42:59.720Z,18.80
2023-01-02T22:45:50.099Z,18.73
2023-01-02T22:48:42.579Z,19.80
2023-01-02T22:52:05.287Z,19.23
2023-01-02T22:54:43.699Z,18.30
2023-01-02T22:57:32.703Z,19.88
2023-01-02T23:00:23.666Z,18.75
2023-01-02T23:03:14.830Z,19.87
2023-01-02T23:06:04.503Z,19.98
2023-01-02T23:08:54.236Z,18.20
2023-01-02T23:11:45.925Z,18.77
2023-01-02T23:14:34.682Z,19.20
2023-01-02T23:17:41.283Z,17.58
2023-01-02T23:20:30.077Z,19.00
2023-01-02T23:23:20.636Z,18.52
2023-01-02T23:26:09.875Z,18.80
2023-01-02T23:29:08.594Z,19.40
2023-01-02T23:31:57.937Z,19.63
2023-01-02T23:34:46.911Z,19.80
2023-01-02T23:37:36.074Z,18.17
2023-01-02T23:40:27.160Z,19.92
2023-01-02T23:43:20.031Z,19.85
2023-01-02T23:46:10.509Z,20.65
2023-01-02T23:48:59.990Z,18.25
2023-01-02T23:51:49.167Z,18.88
2023-01-02T23:54:38.222Z,19.38
2023-01-02T23:57:27.069Z,18.52
